createdAt,value
2023-01-13T00:00:02.011Z,102310
2023-01-13T00:01:09.096Z,102310
2023-01-13T00:02:00.849Z,102300
2023-01-13T00:03:00.777Z,102300
2023-01-13T00:04:00.778Z,102290
2023-01-13T00:05:00.829Z,102280
2023-01-13T00:06:00.791Z,102280
2023-01-13T00:07:00.942Z,102280
2023-01-13T00:08:00.865Z,102270
2023-01-13T00:09:00.783Z,102270
2023-01-13T00:10:00.948Z,102260
2023-01-13T00:11:00.797Z,102270
2023-01-13T00:12:00.777Z,102270
2023-01-13T00:13:02.157Z,102270
2023-01-13T00:14:00.768Z,102270
2023-01-13T00:15:00.778Z,102270
2023-01-13T00:16:03.474Z,102270
2023-01-13T00:17:01.494Z,102270
2023-01-13T00:18:00.761Z,102260
2023-01-13T00:19:00.836Z,102270
2023-01-13T00:20:00.847Z,102260
2023-01-13T00:21:01.988Z,102260
2023-01-13T00:22:00.788Z,102260
2023-01-13T00:23:00.769Z,102260
2023-01-13T00:24:00.838Z,102260
2023-01-13T00:25:01.526Z,102260
2023-01-13T00:26:03.229Z,102260
2023-01-13T00:27:00.793Z,102270
2023-01-13T00:28:00.777Z,102260
2023-01-13T00:29:01.081Z,102260
2023-01-13T00:30:01.078Z,102260
2023-01-13T00:31:04.734Z,102260
2023-01-13T00:32:00.964Z,102260
2023-01-13T00:33:00.763Z,102260
2023-01-13T00:34:00.983Z,102260
2023-01-13T00:35:00.818Z,102260
2023-01-13T00:36:01.567Z,102260
2023-01-13T00:37:00.807Z,102260
2023-01-13T00:38:00.789Z,102260
2023-01-13T00:39:00.780Z,102250
2023-01-13T00:40:00.786Z,102250
2023-01-13T00:41:02.947Z,102250
2023-01-13T00:42:00.797Z,102250
2023-01-13T00:43:00.991Z,102250
2023-01-13T00:44:00.781Z,102250
2023-01-13T00:45:00.927Z,102250
2023-01-13T00:46:01.469Z,102250
2023-01-13T00:47:00.769Z,102250
2023-01-13T00:48:00.771Z,102250
2023-01-13T00:49:00.895Z,102250
2023-01-13T00:50:00.770Z,102250
2023-01-13T00:51:02.626Z,102250
2023-01-13T00:52:00.764Z,102250
2023-01-13T00:53:01.030Z,102250
2023-01-13T00:54:00.973Z,102250
2023-01-13T00:55:00.763Z,102240
2023-01-13T00:56:00.737Z,102240
2023-01-13T00:57:00.924Z,102240
2023-01-13T00:58:01.326Z,102240
2023-01-13T00:59:00.749Z,102240
2023-01-13T01:00:00.892Z,102240
2023-01-13T01:01:01.303Z,102240
2023-01-13T01:02:00.996Z,102240
2023-01-13T01:03:00.771Z,102240
2023-01-13T01:04:00.805Z,102240
2023-01-13T01:05:00.995Z,102240
2023-01-13T01:06:05.980Z,102230
2023-01-13T01:07:00.747Z,102230
2023-01-13T01:08:00.854Z,102230
2023-01-13T01:09:01.199Z,102230
2023-01-13T01:10:00.749Z,102230
2023-01-13T01:11:01.743Z,102220
2023-01-13T01:12:00.971Z,102220
2023-01-13T01:13:00.768Z,102230
2023-01-13T01:14:02.012Z,102220
2023-01-13T01:15:00.837Z,102220
2023-01-13T01:16:03.174Z,102220
2023-01-13T01:17:00.760Z,102220
2023-01-13T01:18:00.753Z,102230
2023-01-13T01:19:00.785Z,102220
2023-01-13T01:20:00.967Z,102220
2023-01-13T01:21:01.301Z,102220
2023-01-13T01:22:00.744Z,102220
2023-01-13T01:23:00.753Z,102220
2023-01-13T01:24:01.987Z,102220
2023-01-13T01:25:00.781Z,102220
2023-01-13T01:35:01.103Z,102230
2023-01-13T01:36:01.228Z,102230
2023-01-13T01:37:00.761Z,102230
2023-01-13T01:38:00.752Z,102230
2023-01-13T01:39:00.897Z,102230
2023-01-13T01:40:00.765Z,102230
2023-01-13T01:41:00.766Z,102230
2023-01-13T01:42:00.803Z,102230
2023-01-13T01:43:00.763Z,102240
2023-01-13T01:44:04.093Z,102230
2023-01-13T01:45:09.553Z,102230
2023-01-13T01:46:01.142Z,102240
2023-01-13T01:47:00.841Z,102240
2023-01-13T01:48:03.253Z,102240
2023-01-13T01:49:10.623Z,102240
2023-01-13T01:50:02.467Z,102240
2023-01-13T01:51:01.071Z,102240
2023-01-13T01:52:05.530Z,102240
2023-01-13T01:53:06.296Z,102240
2023-01-13T01:54:01.589Z,102240
2023-01-13T01:55:05.257Z,102240
2023-01-13T01:56:01.114Z,102240
2023-01-13T01:57:00.962Z,102240
2023-01-13T01:58:04.709Z,102240
2023-01-13T01:59:00.935Z,102240
2023-01-13T02:00:01.100Z,102240
2023-01-13T02:01:00.893Z,102240
2023-01-13T02:02:01.143Z,102240
2023-01-13T02:03:02.320Z,102240
2023-01-13T02:04:02.899Z,102240
2023-01-13T02:05:01.115Z,102240
2023-01-13T02:06:01.071Z,102230
2023-01-13T02:07:02.529Z,102230
2023-01-13T02:08:01.415Z,102230
2023-01-13T02:09:00.783Z,102230
2023-01-13T02:10:02.682Z,102230
2023-01-13T02:11:00.740Z,102230
2023-01-13T02:12:00.757Z,102240
2023-01-13T02:13:03.301Z,102230
2023-01-13T02:14:00.874Z,102230
2023-01-13T02:15:00.722Z,102230
2023-01-13T02:16:04.499Z,102230
2023-01-13T02:17:10.622Z,102220
2023-01-13T02:18:10.620Z,102220
2023-01-13T02:19:10.622Z,102220
2023-01-13T02:20:10.616Z,102220
2023-01-13T02:21:10.683Z,102210
2023-01-13T02:22:10.621Z,102210
2023-01-13T02:23:00.744Z,102210
2023-01-13T02:24:10.614Z,102210
2023-01-13T02:25:01.742Z,102210
2023-01-13T02:26:08.109Z,102210
2023-01-13T02:27:04.067Z,102210
2023-01-13T02:28:10.611Z,102210
2023-01-13T02:29:09.241Z,102210
2023-01-13T02:30:01.822Z,102210
2023-01-13T02:31:01.752Z,102210
2023-01-13T02:32:08.071Z,102210
2023-01-13T02:33:10.614Z,102210
2023-01-13T02:34:06.825Z,102210
2023-01-13T02:35:10.611Z,102200
2023-01-13T02:36:01.764Z,102210
2023-01-13T02:37:01.350Z,102210
2023-01-13T02:38:01.868Z,102210
2023-01-13T02:39:04.181Z,102210
2023-01-13T02:40:05.011Z,102210
2023-01-13T02:41:06.346Z,102210
2023-01-13T02:42:10.617Z,102210
2023-01-13T02:43:03.369Z,102210
2023-01-13T02:44:02.576Z,102210
2023-01-13T02:45:03.487Z,102200
2023-01-13T02:46:04.095Z,102200
2023-01-13T02:47:07.127Z,102190
2023-01-13T02:48:03.741Z,102190
2023-01-13T02:49:03.946Z,102190
2023-01-13T02:50:02.795Z,102190
2023-01-13T02:51:05.244Z,102190
2023-01-13T02:52:05.889Z,102190
2023-01-13T02:53:04.464Z,102190
2023-01-13T02:54:04.027Z,102190
2023-01-13T02:55:04.511Z,102190
2023-01-13T02:56:02.255Z,102190
2023-01-13T02:57:01.630Z,102190
2023-01-13T02:58:03.494Z,102190
2023-01-13T02:59:01.042Z,102190
2023-01-13T03:00:02.676Z,102190
2023-01-13T03:01:01.058Z,102190
2023-01-13T03:02:01.229Z,102190
2023-01-13T03:03:00.857Z,102190
2023-01-13T03:04:10.664Z,102190
2023-01-13T03:05:00.847Z,102190
2023-01-13T03:06:10.615Z,102190
2023-01-13T03:07:06.379Z,102190
2023-01-13T03:08:10.721Z,102180
2023-01-13T03:09:05.795Z,102180
2023-01-13T03:10:09.381Z,102180
2023-01-13T03:11:04.778Z,102180
2023-01-13T03:12:00.718Z,102180
2023-01-13T03:13:02.004Z,102180
2023-01-13T03:14:10.330Z,102180
2023-01-13T03:15:10.760Z,102180
2023-01-13T03:16:10.693Z,102180
2023-01-13T03:17:10.644Z,102180
2023-01-13T03:18:07.919Z,102180
2023-01-13T03:19:00.722Z,102180
2023-01-13T03:20:00.748Z,102180
2023-01-13T03:21:06.710Z,102180
2023-01-13T03:22:01.812Z,102180
2023-01-13T03:23:01.743Z,102180
2023-01-13T03:24:05.677Z,102180
2023-01-13T03:25:01.770Z,102180
2023-01-13T03:26:04.084Z,102180
2023-01-13T03:27:04.752Z,102180
2023-01-13T03:28:04.178Z,102180
2023-01-13T03:29:08.093Z,102190
2023-01-13T03:30:01.781Z,102190
2023-01-13T03:31:04.132Z,102180
2023-01-13T03:32:07.394Z,102180
2023-01-13T03:33:04.676Z,102190
2023-01-13T03:34:03.461Z,102190
2023-01-13T03:35:01.766Z,102180
2023-01-13T03:36:03.243Z,102180
2023-01-13T03:37:02.628Z,102180
2023-01-13T03:38:05.267Z,102180
2023-01-13T03:39:06.869Z,102180
2023-01-13T03:40:05.580Z,102180
2023-01-13T03:41:04.938Z,102180
2023-01-13T03:42:04.552Z,102180
2023-01-13T03:43:05.371Z,102180
2023-01-13T03:44:05.578Z,102170
2023-01-13T03:45:11.286Z,102170
2023-01-13T03:46:03.829Z,102180
2023-01-13T03:47:04.106Z,102170
2023-01-13T03:48:05.208Z,102180
2023-01-13T03:49:02.429Z,102180
2023-01-13T03:50:05.455Z,102180
2023-01-13T03:51:04.876Z,102180
2023-01-13T03:52:03.249Z,102180
2023-01-13T03:53:06.159Z,102180
2023-01-13T03:54:03.995Z,102180
2023-01-13T03:55:04.194Z,102180
2023-01-13T03:56:06.484Z,102180
2023-01-13T03:57:06.120Z,102180
2023-01-13T03:58:04.911Z,102180
2023-01-13T03:59:02.600Z,102180
2023-01-13T04:00:02.291Z,102180
2023-01-13T04:01:10.812Z,102180
2023-01-13T04:02:04.284Z,102180
2023-01-13T04:03:06.179Z,102190
2023-01-13T04:04:06.317Z,102180
2023-01-13T04:05:02.565Z,102180
2023-01-13T04:06:09.486Z,102190
2023-01-13T04:07:00.759Z,102190
2023-01-13T04:08:08.319Z,102190
2023-01-13T04:09:05.578Z,102200
2023-01-13T04:10:02.579Z,102200
2023-01-13T04:11:05.325Z,102200
2023-01-13T04:12:06.151Z,102200
2023-01-13T04:13:03.108Z,102200
2023-01-13T04:14:02.406Z,102200
2023-01-13T04:15:00.968Z,102200
2023-01-13T04:16:00.980Z,102200
2023-01-13T04:17:00.887Z,102200
2023-01-13T04:18:10.652Z,102200
2023-01-13T04:19:00.743Z,102200
2023-01-13T04:20:00.754Z,102200
2023-01-13T04:21:00.843Z,102190
2023-01-13T04:22:01.112Z,102190
2023-01-13T04:23:01.009Z,102190
2023-01-13T04:24:00.784Z,102200
2023-01-13T04:25:00.771Z,102190
2023-01-13T04:26:00.788Z,102190
2023-01-13T04:27:00.888Z,102200
2023-01-13T04:28:00.986Z,102200
2023-01-13T04:29:00.745Z,102200
2023-01-13T04:30:00.787Z,102200
2023-01-13T04:31:00.837Z,102200
2023-01-13T04:32:00.743Z,102190
2023-01-13T04:33:01.014Z,102190
2023-01-13T04:34:00.778Z,102190
2023-01-13T04:35:00.784Z,102190
2023-01-13T04:36:00.783Z,102190
2023-01-13T04:37:00.728Z,102190
2023-01-13T04:38:01.651Z,102200
2023-01-13T04:39:01.102Z,102190
2023-01-13T04:40:00.741Z,102200
2023-01-13T04:41:00.771Z,102200
2023-01-13T04:42:00.811Z,102190
2023-01-13T04:43:00.918Z,102190
2023-01-13T04:44:01.006Z,102190
2023-01-13T04:45:00.849Z,102180
2023-01-13T04:46:00.838Z,102190
2023-01-13T04:47:01.476Z,102190
2023-01-13T04:48:00.793Z,102200
2023-01-13T04:49:00.765Z,102210
2023-01-13T04:50:00.793Z,102200
2023-01-13T04:51:00.760Z,102200
2023-01-13T04:52:00.755Z,102190
2023-01-13T04:53:00.795Z,102190
2023-01-13T04:54:00.732Z,102200
2023-01-13T04:55:00.915Z,102200
2023-01-13T04:56:00.819Z,102200
2023-01-13T04:57:00.751Z,102200
2023-01-13T04:58:01.879Z,102200
2023-01-13T04:59:00.752Z,102200
2023-01-13T05:00:00.794Z,102200
2023-01-13T05:01:00.840Z,102190
2023-01-13T05:02:00.848Z,102190
2023-01-13T05:03:01.207Z,102190
2023-01-13T05:04:00.799Z,102190
2023-01-13T05:05:01.604Z,102200
2023-01-13T05:06:00.759Z,102200
2023-01-13T05:07:00.783Z,102200
2023-01-13T05:08:00.799Z,102200
2023-01-13T05:09:00.772Z,102200
2023-01-13T05:10:00.810Z,102200
2023-01-13T05:11:00.776Z,102200
2023-01-13T05:12:00.753Z,102210
2023-01-13T05:13:00.967Z,102200
2023-01-13T05:14:01.006Z,102200
2023-01-13T05:15:00.765Z,102210
2023-01-13T05:16:01.068Z,102210
2023-01-13T05:17:00.789Z,102210
2023-01-13T05:18:01.096Z,102210
2023-01-13T05:19:00.814Z,102210
2023-01-13T05:20:00.871Z,102210
2023-01-13T05:21:00.782Z,102210
2023-01-13T05:22:01.298Z,102210
2023-01-13T05:23:00.768Z,102220
2023-01-13T05:24:00.860Z,102220
2023-01-13T05:25:00.759Z,102220
2023-01-13T05:26:01.084Z,102210
2023-01-13T05:27:00.889Z,102210
2023-01-13T05:28:00.790Z,102210
2023-01-13T05:29:00.768Z,102210
2023-01-13T05:30:00.938Z,102210
2023-01-13T05:31:00.862Z,102210
2023-01-13T05:32:00.783Z,102210
2023-01-13T05:33:00.784Z,102210
2023-01-13T05:34:00.804Z,102210
2023-01-13T05:35:01.016Z,102210
2023-01-13T05:36:01.237Z,102220
2023-01-13T05:37:00.775Z,102220
2023-01-13T05:38:00.884Z,102230
2023-01-13T05:39:00.744Z,102230
2023-01-13T05:40:00.842Z,102230
2023-01-13T05:41:00.899Z,102230
2023-01-13T05:42:00.749Z,102230
2023-01-13T05:43:05.620Z,102230
2023-01-13T05:44:00.790Z,102230
2023-01-13T05:45:00.860Z,102240
2023-01-13T05:46:00.849Z,102240
2023-01-13T05:47:00.792Z,102240
2023-01-13T05:48:00.744Z,102240
2023-01-13T05:49:00.946Z,102240
2023-01-13T05:50:00.936Z,102240
2023-01-13T05:51:01.664Z,102240
2023-01-13T05:52:00.774Z,102240
2023-01-13T05:53:01.385Z,102240
2023-01-13T05:54:00.794Z,102240
2023-01-13T05:55:00.807Z,102240
2023-01-13T05:56:04.306Z,102240
2023-01-13T05:57:00.772Z,102240
2023-01-13T05:58:00.805Z,102250
2023-01-13T05:59:00.766Z,102250
2023-01-13T06:00:01.897Z,102250
2023-01-13T06:01:01.946Z,102260
2023-01-13T06:02:00.907Z,102260
2023-01-13T06:03:00.873Z,102260
2023-01-13T06:04:00.760Z,102270
2023-01-13T06:05:00.775Z,102270
2023-01-13T06:06:00.879Z,102270
2023-01-13T06:07:00.796Z,102270
2023-01-13T06:08:01.850Z,102270
2023-01-13T06:09:00.776Z,102270
2023-01-13T06:10:00.753Z,102260
2023-01-13T06:11:00.908Z,102270
2023-01-13T06:12:00.768Z,102270
2023-01-13T06:13:01.267Z,102270
2023-01-13T06:14:00.781Z,102270
2023-01-13T06:15:00.790Z,102270
2023-01-13T06:16:00.860Z,102270
2023-01-13T06:17:00.750Z,102270
2023-01-13T06:18:02.709Z,102280
2023-01-13T06:19:00.768Z,102280
2023-01-13T06:20:00.823Z,102280
2023-01-13T06:21:00.794Z,102280
2023-01-13T06:22:07.494Z,102280
2023-01-13T06:23:00.763Z,102290
2023-01-13T06:24:00.786Z,102290
2023-01-13T06:25:00.755Z,102290
2023-01-13T06:26:10.625Z,102290
2023-01-13T06:27:00.854Z,102280
2023-01-13T06:28:00.967Z,102280
2023-01-13T06:29:00.911Z,102280
2023-01-13T06:30:00.781Z,102290
2023-01-13T06:31:02.877Z,102290
2023-01-13T06:32:02.732Z,102280
2023-01-13T06:33:03.127Z,102280
2023-01-13T06:34:05.021Z,102280
2023-01-13T06:35:04.766Z,102280
2023-01-13T06:36:03.370Z,102280
2023-01-13T06:37:01.670Z,102280
2023-01-13T06:38:02.474Z,102290
2023-01-13T06:39:01.835Z,102290
2023-01-13T06:40:01.687Z,102290
2023-01-13T06:41:00.907Z,102300
2023-01-13T06:42:02.354Z,102290
2023-01-13T06:43:01.872Z,102290
2023-01-13T06:44:01.061Z,102290
2023-01-13T06:45:00.876Z,102290
2023-01-13T06:46:01.184Z,102300
2023-01-13T06:47:00.873Z,102300
2023-01-13T06:48:00.800Z,102290
2023-01-13T06:49:00.743Z,102300
2023-01-13T06:50:00.779Z,102300
2023-01-13T06:51:01.567Z,102300
2023-01-13T06:52:00.804Z,102300
2023-01-13T06:53:01.206Z,102290
2023-01-13T06:54:00.757Z,102290
2023-01-13T06:55:01.125Z,102290
2023-01-13T06:56:00.780Z,102300
2023-01-13T06:57:00.992Z,102290
2023-01-13T06:58:01.013Z,102290
2023-01-13T06:59:00.796Z,102290
2023-01-13T07:00:00.885Z,102290
2023-01-13T07:01:00.889Z,102300
2023-01-13T07:02:01.781Z,102300
2023-01-13T07:03:10.627Z,102310
2023-01-13T07:04:00.780Z,102310
2023-01-13T07:05:00.773Z,102320
2023-01-13T07:06:00.895Z,102320
2023-01-13T07:07:00.755Z,102320
2023-01-13T07:08:00.831Z,102320
2023-01-13T07:09:00.776Z,102320
2023-01-13T07:10:00.745Z,102320
2023-01-13T07:11:01.650Z,102330
2023-01-13T07:12:01.045Z,102330
2023-01-13T07:13:01.228Z,102330
2023-01-13T07:14:00.790Z,102340
2023-01-13T07:15:00.792Z,102340
2023-01-13T07:16:02.180Z,102340
2023-01-13T07:17:00.979Z,102340
2023-01-13T07:18:01.281Z,102330
2023-01-13T07:19:00.846Z,102330
2023-01-13T07:20:00.801Z,102330
2023-01-13T07:21:02.652Z,102330
2023-01-13T07:22:00.907Z,102330
2023-01-13T07:23:00.772Z,102330
2023-01-13T07:24:00.756Z,102330
2023-01-13T07:25:00.834Z,102330
2023-01-13T07:26:00.771Z,102340
2023-01-13T07:27:00.750Z,102330
2023-01-13T07:28:00.875Z,102340
2023-01-13T07:29:00.782Z,102340
2023-01-13T07:30:01.013Z,102340
2023-01-13T07:31:00.847Z,102330
2023-01-13T07:32:00.830Z,102330
2023-01-13T07:33:00.773Z,102330
2023-01-13T07:34:00.806Z,102330
2023-01-13T07:35:00.770Z,102330
2023-01-13T07:36:01.864Z,102320
2023-01-13T07:37:01.000Z,102310
2023-01-13T07:38:00.767Z,102320
2023-01-13T07:39:01.376Z,102320
2023-01-13T07:40:01.585Z,102320
2023-01-13T07:41:01.056Z,102330
2023-01-13T07:42:00.819Z,102330
2023-01-13T07:43:00.950Z,102330
2023-01-13T07:44:03.256Z,102330
2023-01-13T07:45:00.751Z,102340
2023-01-13T07:46:02.425Z,102350
2023-01-13T07:47:00.802Z,102350
2023-01-13T07:48:00.858Z,102350
2023-01-13T07:49:00.795Z,102350
2023-01-13T07:50:01.054Z,102360
2023-01-13T07:51:01.698Z,102360
2023-01-13T07:52:00.999Z,102360
2023-01-13T07:53:00.797Z,102360
2023-01-13T07:54:00.837Z,102350
2023-01-13T07:55:00.739Z,102350
2023-01-13T07:56:01.406Z,102360
2023-01-13T07:57:00.764Z,102370
2023-01-13T07:58:00.747Z,102370
2023-01-13T07:59:01.133Z,102370
2023-01-13T08:00:01.213Z,102370
2023-01-13T08:01:07.823Z,102360
2023-01-13T08:02:01.075Z,102360
2023-01-13T08:03:00.823Z,102370
2023-01-13T08:04:00.804Z,102370
2023-01-13T08:05:00.866Z,102360
2023-01-13T08:06:01.139Z,102370
2023-01-13T08:07:00.800Z,102360
2023-01-13T08:08:00.932Z,102360
2023-01-13T08:09:00.798Z,102360
2023-01-13T08:10:01.304Z,102360
2023-01-13T08:11:01.443Z,102360
2023-01-13T08:12:00.964Z,102370
2023-01-13T08:13:00.793Z,102360
2023-01-13T08:14:01.009Z,102360
2023-01-13T08:15:00.788Z,102350
2023-01-13T08:16:03.112Z,102350
2023-01-13T08:17:00.770Z,102350
2023-01-13T08:18:00.811Z,102350
2023-01-13T08:19:00.826Z,102350
2023-01-13T08:20:01.036Z,102360
2023-01-13T08:21:02.100Z,102360
2023-01-13T08:22:01.013Z,102360
2023-01-13T08:23:01.227Z,102370
2023-01-13T08:24:00.753Z,102380
2023-01-13T08:25:00.854Z,102380
2023-01-13T08:26:03.732Z,102380
2023-01-13T08:27:00.775Z,102380
2023-01-13T08:28:00.817Z,102380
2023-01-13T08:29:00.772Z,102380
2023-01-13T08:30:00.795Z,102380
2023-01-13T08:31:01.764Z,102380
2023-01-13T08:32:00.748Z,102380
2023-01-13T08:33:00.856Z,102380
2023-01-13T08:34:00.982Z,102380
2023-01-13T08:35:00.772Z,102370
2023-01-13T08:36:02.974Z,102370
2023-01-13T08:37:00.799Z,102370
2023-01-13T08:38:00.781Z,102370
2023-01-13T08:39:00.868Z,102370
2023-01-13T08:40:00.786Z,102370
2023-01-13T08:41:06.774Z,102370
2023-01-13T08:42:01.362Z,102370
2023-01-13T08:43:00.763Z,102370
2023-01-13T08:44:00.752Z,102370
2023-01-13T08:45:00.951Z,102360
2023-01-13T08:46:01.579Z,102370
2023-01-13T08:47:02.745Z,102370
2023-01-13T08:48:01.058Z,102370
2023-01-13T08:49:01.041Z,102370
2023-01-13T08:50:00.784Z,102380
2023-01-13T08:51:02.545Z,102380
2023-01-13T08:52:00.832Z,102380
2023-01-13T08:53:00.767Z,102380
2023-01-13T08:54:00.733Z,102390
2023-01-13T08:55:00.799Z,102380
2023-01-13T08:56:00.967Z,102380
2023-01-13T08:57:00.945Z,102380
2023-01-13T08:58:14.477Z,102380
2023-01-13T08:59:01.064Z,102390
2023-01-13T09:00:01.006Z,102390
2023-01-13T09:01:04.598Z,102400
2023-01-13T09:02:01.011Z,102400
2023-01-13T09:03:00.882Z,102400
2023-01-13T09:04:00.883Z,102390
2023-01-13T09:05:01.213Z,102400
2023-01-13T09:06:00.978Z,102390
2023-01-13T09:07:01.100Z,102400
2023-01-13T09:08:00.767Z,102400
2023-01-13T09:09:00.830Z,102400
2023-01-13T09:10:01.069Z,102400
2023-01-13T09:11:00.930Z,102400
2023-01-13T09:12:00.774Z,102400
2023-01-13T09:13:00.802Z,102410
2023-01-13T09:14:03.211Z,102420
2023-01-13T09:15:01.244Z,102420
2023-01-13T09:16:00.815Z,102410
2023-01-13T09:17:00.961Z,102420
2023-01-13T09:18:00.960Z,102420
2023-01-13T09:19:00.754Z,102420
2023-01-13T09:20:00.746Z,102430
2023-01-13T09:21:00.811Z,102430
2023-01-13T09:22:00.885Z,102430
2023-01-13T09:23:00.874Z,102430
2023-01-13T09:24:00.851Z,102430
2023-01-13T09:25:00.786Z,102430
2023-01-13T09:26:00.754Z,102430
2023-01-13T09:27:00.813Z,102430
2023-01-13T09:28:00.768Z,102420
2023-01-13T09:29:00.926Z,102420
2023-01-13T09:30:00.777Z,102420
2023-01-13T09:31:00.819Z,102420
2023-01-13T09:32:00.788Z,102430
2023-01-13T09:33:01.329Z,102430
2023-01-13T09:34:01.461Z,102440
2023-01-13T09:35:00.796Z,102430
2023-01-13T09:36:00.793Z,102430
2023-01-13T09:37:01.142Z,102430
2023-01-13T09:38:00.790Z,102430
2023-01-13T09:39:00.857Z,102430
2023-01-13T09:40:06.354Z,102430
2023-01-13T09:41:00.852Z,102430
2023-01-13T09:42:03.898Z,102440
2023-01-13T09:43:04.501Z,102430
2023-01-13T09:44:01.648Z,102430
2023-01-13T09:45:05.415Z,102430
2023-01-13T09:46:04.559Z,102430
2023-01-13T09:47:02.617Z,102430
2023-01-13T09:48:05.094Z,102420
2023-01-13T09:49:01.250Z,102430
2023-01-13T09:50:07.220Z,102430
2023-01-13T09:51:10.693Z,102430
2023-01-13T09:52:04.292Z,102440
2023-01-13T09:53:00.879Z,102440
2023-01-13T09:54:05.930Z,102440
2023-01-13T09:55:01.799Z,102440
2023-01-13T09:56:00.814Z,102430
2023-01-13T09:57:01.039Z,102430
2023-01-13T09:58:01.598Z,102430
2023-01-13T09:59:00.765Z,102420
2023-01-13T10:00:01.131Z,102420
2023-01-13T10:01:00.796Z,102420
2023-01-13T10:02:10.625Z,102430
2023-01-13T10:03:00.763Z,102420
2023-01-13T10:04:03.466Z,102420
2023-01-13T10:05:03.578Z,102420
2023-01-13T10:06:10.650Z,102430
2023-01-13T10:07:01.541Z,102430
2023-01-13T10:08:04.407Z,102430
2023-01-13T10:09:01.059Z,102430
2023-01-13T10:10:01.870Z,102420
2023-01-13T10:11:04.526Z,102430
2023-01-13T10:12:01.445Z,102430
2023-01-13T10:13:01.703Z,102440
2023-01-13T10:14:02.362Z,102440
2023-01-13T10:15:00.878Z,102440
2023-01-13T10:16:10.784Z,102440
2023-01-13T10:17:01.852Z,102440
2023-01-13T10:18:10.648Z,102430
2023-01-13T10:19:00.768Z,102430
2023-01-13T10:20:10.637Z,102430
2023-01-13T10:21:06.835Z,102430
2023-01-13T10:22:10.805Z,102430
2023-01-13T10:23:10.634Z,102430
2023-01-13T10:24:02.761Z,102430
2023-01-13T10:25:01.894Z,102430
2023-01-13T10:26:10.707Z,102440
2023-01-13T10:27:04.453Z,102430
2023-01-13T10:28:01.931Z,102420
2023-01-13T10:29:00.882Z,102420
2023-01-13T10:30:10.647Z,102410
2023-01-13T10:31:04.180Z,102410
2023-01-13T10:32:00.802Z,102410
2023-01-13T10:33:05.314Z,102410
2023-01-13T10:34:02.078Z,102410
2023-01-13T10:35:00.763Z,102410
2023-01-13T10:36:01.828Z,102400
2023-01-13T10:37:00.735Z,102400
2023-01-13T10:38:00.788Z,102400
2023-01-13T10:39:09.723Z,102400
2023-01-13T10:40:01.291Z,102410
2023-01-13T10:41:02.729Z,102410
2023-01-13T10:42:01.620Z,102410
2023-01-13T10:43:04.618Z,102410
2023-01-13T10:44:03.942Z,102410
2023-01-13T10:45:01.332Z,102410
2023-01-13T10:46:03.931Z,102400
2023-01-13T10:47:00.751Z,102400
2023-01-13T10:48:04.311Z,102400
2023-01-13T10:49:02.468Z,102390
2023-01-13T10:50:04.181Z,102380
2023-01-13T10:51:10.661Z,102380
2023-01-13T10:52:01.428Z,102380
2023-01-13T10:53:02.614Z,102390
2023-01-13T10:54:02.063Z,102390
2023-01-13T10:55:00.876Z,102390
2023-01-13T10:56:02.493Z,102390
2023-01-13T10:57:10.675Z,102380
2023-01-13T10:58:10.645Z,102380
2023-01-13T10:59:10.666Z,102380
2023-01-13T11:00:02.281Z,102380
2023-01-13T11:01:03.851Z,102390
2023-01-13T11:02:05.597Z,102390
2023-01-13T11:03:10.671Z,102390
2023-01-13T11:04:00.780Z,102390
2023-01-13T11:05:02.811Z,102400
2023-01-13T11:06:01.166Z,102400
2023-01-13T11:07:02.194Z,102410
2023-01-13T11:08:00.780Z,102410
2023-01-13T11:09:00.827Z,102410
2023-01-13T11:10:08.142Z,102410
2023-01-13T11:11:00.812Z,102410
2023-01-13T11:12:00.806Z,102420
2023-01-13T11:13:04.344Z,102420
2023-01-13T11:14:02.063Z,102420
2023-01-13T11:15:03.240Z,102420
2023-01-13T11:16:04.518Z,102420
2023-01-13T11:17:10.626Z,102420
2023-01-13T11:18:02.423Z,102420
2023-01-13T11:19:05.578Z,102420
2023-01-13T11:20:10.672Z,102420
2023-01-13T11:21:03.774Z,102410
2023-01-13T11:22:08.407Z,102410
2023-01-13T11:23:04.239Z,102410
2023-01-13T11:24:10.792Z,102410
2023-01-13T11:25:02.250Z,102410
2023-01-13T11:26:03.324Z,102400
2023-01-13T11:27:03.339Z,102400
2023-01-13T11:28:05.161Z,102400
2023-01-13T11:29:09.461Z,102400
2023-01-13T11:30:08.786Z,102390
2023-01-13T11:31:07.518Z,102380
2023-01-13T11:32:10.668Z,102380
2023-01-13T11:33:10.651Z,102380
2023-01-13T11:34:10.693Z,102380
2023-01-13T11:35:03.367Z,102380
2023-01-13T11:36:07.405Z,102380
2023-01-13T11:37:06.234Z,102380
2023-01-13T11:38:05.568Z,102380
2023-01-13T11:39:10.684Z,102380
2023-01-13T11:40:10.685Z,102380
2023-01-13T11:41:07.748Z,102380
2023-01-13T11:42:02.314Z,102380
2023-01-13T11:43:05.806Z,102380
2023-01-13T11:44:10.665Z,102390
2023-01-13T11:45:10.629Z,102380
2023-01-13T11:46:00.956Z,102380
2023-01-13T11:47:00.871Z,102380
2023-01-13T11:48:01.589Z,102370
2023-01-13T11:49:01.745Z,102370
2023-01-13T11:50:01.562Z,102370
2023-01-13T11:51:07.377Z,102370
2023-01-13T11:52:10.653Z,102380
2023-01-13T11:53:10.809Z,102370
2023-01-13T11:54:01.794Z,102380
2023-01-13T11:55:08.849Z,102380
2023-01-13T11:56:10.651Z,102370
2023-01-13T11:57:10.667Z,102370
2023-01-13T11:58:10.722Z,102370
2023-01-13T11:59:08.184Z,102370
2023-01-13T12:00:10.657Z,102370
2023-01-13T12:01:10.692Z,102370
2023-01-13T12:02:01.845Z,102370
2023-01-13T12:03:04.129Z,102360
2023-01-13T12:04:09.534Z,102360
2023-01-13T12:05:01.910Z,102360
2023-01-13T12:06:06.082Z,102360
2023-01-13T12:07:01.792Z,102360
2023-01-13T12:08:00.751Z,102350
2023-01-13T12:09:09.721Z,102350
2023-01-13T12:10:13.517Z,102350
2023-01-13T12:11:01.771Z,102350
2023-01-13T12:12:06.063Z,102350
2023-01-13T12:13:10.633Z,102350
2023-01-13T12:14:08.358Z,102350
2023-01-13T12:15:04.248Z,102350
2023-01-13T12:16:10.703Z,102360
2023-01-13T12:17:03.648Z,102350
2023-01-13T12:18:00.767Z,102350
2023-01-13T12:19:10.651Z,102350
2023-01-13T12:20:10.689Z,102340
2023-01-13T12:21:04.320Z,102340
2023-01-13T12:22:01.815Z,102340
2023-01-13T12:23:03.117Z,102330
2023-01-13T12:24:10.628Z,102340
2023-01-13T12:25:04.703Z,102340
2023-01-13T12:26:05.366Z,102340
2023-01-13T12:27:04.973Z,102340
2023-01-13T12:28:10.621Z,102340
2023-01-13T12:29:04.978Z,102330
2023-01-13T12:30:02.445Z,102330
2023-01-13T12:31:01.613Z,102330
2023-01-13T12:32:02.819Z,102320
2023-01-13T12:33:05.741Z,102320
2023-01-13T12:34:10.622Z,102310
2023-01-13T12:35:07.602Z,102300
2023-01-13T12:36:09.809Z,102300
2023-01-13T12:37:00.765Z,102300